sensor_id;sensor_type;location;lat;lon;timestamp;temperature;humidity
61412;DHT22;47278;49.732;7.690;2022-11-02T00:01:45;5.20;99.90
61412;DHT22;47278;49.732;7.690;2022-11-02T00:04:11;5.40;99.90
61412;DHT22;47278;49.732;7.690;2022-11-02T00:06:37;5.20;99.90
61412;DHT22;47278;49.732;7.690;2022-11-02T00:09:02;5.10;99.90
61412;DHT22;47278;49.732;7.690;2022-11-02T00:11:28;5.10;99.90
61412;DHT22;47278;49.732;7.690;2022-11-02T00:13:53;5.10;99.90
61412;DHT22;47278;49.732;7.690;2022-11-02T00:16:19;5.10;99.90
61412;DHT22;47278;49.732;7.690;2022-11-02T00:18:46;5.20;99.90
61412;DHT22;47278;49.732;7.690;2022-11-02T00:21:13;5.20;99.90
61412;DHT22;47278;49.732;7.690;2022-11-02T00:23:40;5.20;99.90
61412;DHT22;47278;49.732;7.690;2022-11-02T00:26:06;5.20;99.90
61412;DHT22;47278;49.732;7.690;2022-11-02T00:28:31;5.20;99.90
61412;DHT22;47278;49.732;7.690;2022-11-02T00:30:57;5.20;99.90
61412;DHT22;47278;49.732;7.690;2022-11-02T00:33:23;5.20;99.90
61412;DHT22;47278;49.732;7.690;2022-11-02T00:35:48;5.20;99.90
61412;DHT22;47278;49.732;7.690;2022-11-02T00:38:14;5.30;99.90
61412;DHT22;47278;49.732;7.690;2022-11-02T00:40:39;5.30;99.90
61412;DHT22;47278;49.732;7.690;2022-11-02T00:43:05;5.40;99.90
61412;DHT22;47278;49.732;7.690;2022-11-02T00:45:31;5.30;99.90
61412;DHT22;47278;49.732;7.690;2022-11-02T00:47:56;5.40;99.90
61412;DHT22;47278;49.732;7.690;2022-11-02T00:50:22;5.50;99.90
61412;DHT22;47278;49.732;7.690;2022-11-02T00:52:47;5.50;99.90
61412;DHT22;47278;49.732;7.690;2022-11-02T00:55:13;5.50;99.90
61412;DHT22;47278;49.732;7.690;2022-11-02T00:57:39;5.50;99.90
61412;DHT22;47278;49.732;7.690;2022-11-02T01:00:06;5.50;99.90
61412;DHT22;47278;49.732;7.690;2022-11-02T01:02:32;5.50;99.90
61412;DHT22;47278;49.732;7.690;2022-11-02T01:04:58;5.60;99.90
61412;DHT22;47278;49.732;7.690;2022-11-02T01:07:23;5.60;99.90
61412;DHT22;47278;49.732;7.690;2022-11-02T01:09:49;5.60;99.90
61412;DHT22;47278;49.732;7.690;2022-11-02T01:12:15;5.60;99.90
61412;DHT22;47278;49.732;7.690;2022-11-02T01:14:40;5.60;99.90
61412;DHT22;47278;49.732;7.690;2022-11-02T01:17:06;5.70;99.90
61412;DHT22;47278;49.732;7.690;2022-11-02T01:19:31;5.70;99.90
61412;DHT22;47278;49.732;7.690;2022-11-02T01:21:57;5.60;99.90
61412;DHT22;47278;49.732;7.690;2022-11-02T01:24:22;5.60;99.90
61412;DHT22;47278;49.732;7.690;2022-11-02T01:26:49;5.60;99.90
61412;DHT22;47278;49.732;7.690;2022-11-02T01:29:14;5.60;99.90
61412;DHT22;47278;49.732;7.690;2022-11-02T01:31:40;5.60;99.90
61412;DHT22;47278;49.732;7.690;2022-11-02T01:34:05;5.70;99.90
61412;DHT22;47278;49.732;7.690;2022-11-02T01:36:32;5.70;99.90
61412;DHT22;47278;49.732;7.690;2022-11-02T01:38:57;5.70;99.90
61412;DHT22;47278;49.732;7.690;2022-11-02T01:41:23;5.80;99.90
61412;DHT22;47278;49.732;7.690;2022-11-02T01:43:50;5.90;99.90
61412;DHT22;47278;49.732;7.690;2022-11-02T01:46:21;5.90;99.90
61412;DHT22;47278;49.732;7.690;2022-11-02T01:48:49;6.00;99.90
61412;DHT22;47278;49.732;7.690;2022-11-02T01:51:20;6.00;99.90
61412;DHT22;47278;49.732;7.690;2022-11-02T01:53:48;6.10;99.90
61412;DHT22;47278;49.732;7.690;2022-11-02T01:56:14;6.20;99.90
61412;DHT22;47278;49.732;7.690;2022-11-02T01:58:42;6.20;99.90
61412;DHT22;47278;49.732;7.690;2022-11-02T02:01:09;6.20;99.90
61412;DHT22;47278;49.732;7.690;2022-11-02T02:03:35;6.20;99.90
61412;DHT22;47278;49.732;7.690;2022-11-02T02:06:05;6.20;99.90
61412;DHT22;47278;49.732;7.690;2022-11-02T02:08:31;6.20;99.90
61412;DHT22;47278;49.732;7.690;2022-11-02T02:10:58;6.30;99.90
61412;DHT22;47278;49.732;7.690;2022-11-02T02:13:24;6.20;99.90
61412;DHT22;47278;49.732;7.690;2022-11-02T02:18:54;6.30;99.90
61412;DHT22;47278;49.732;7.690;2022-11-02T02:21:14;6.40;99.90
61412;DHT22;47278;49.732;7.690;2022-11-02T02:23:43;4.40;99.90
61412;DHT22;47278;49.732;7.690;2022-11-02T02:28:53;6.60;99.90
61412;DHT22;47278;49.732;7.690;2022-11-02T02:31:28;6.70;99.90
61412;DHT22;47278;49.732;7.690;2022-11-02T02:38:59;7.10;99.90
61412;DHT22;47278;49.732;7.690;2022-11-02T02:43:55;7.00;99.90
61412;DHT22;47278;49.732;7.690;2022-11-02T02:48:53;6.80;99.90
61412;DHT22;47278;49.732;7.690;2022-11-02T02:51:21;6.90;99.90
61412;DHT22;47278;49.732;7.690;2022-11-02T02:53:59;6.90;99.90
61412;DHT22;47278;49.732;7.690;2022-11-02T02:56:27;6.90;99.90
61412;DHT22;47278;49.732;7.690;2022-11-02T02:59:01;6.90;99.90
61412;DHT22;47278;49.732;7.690;2022-11-02T03:01:29;7.10;99.90
61412;DHT22;47278;49.732;7.690;2022-11-02T03:03:55;7.20;99.90
61412;DHT22;47278;49.732;7.690;2022-11-02T03:06:27;7.30;99.90
61412;DHT22;47278;49.732;7.690;2022-11-02T03:08:56;7.50;99.90
61412;DHT22;47278;49.732;7.690;2022-11-02T03:11:23;7.40;99.90
61412;DHT22;47278;49.732;7.690;2022-11-02T03:19:07;7.60;99.90
61412;DHT22;47278;49.732;7.690;2022-11-02T03:24:08;7.60;99.90
61412;DHT22;47278;49.732;7.690;2022-11-02T03:26:42;7.70;99.90
61412;DHT22;47278;49.732;7.690;2022-11-02T03:29:23;7.70;99.90
61412;DHT22;47278;49.732;7.690;2022-11-02T03:37:01;7.80;99.90
61412;DHT22;47278;49.732;7.690;2022-11-02T03:39:35;7.80;99.90
61412;DHT22;47278;49.732;7.690;2022-11-02T03:42:02;7.90;99.90
61412;DHT22;47278;49.732;7.690;2022-11-02T03:44:28;7.80;99.90
61412;DHT22;47278;49.732;7.690;2022-11-02T03:46:56;7.80;99.90
61412;DHT22;47278;49.732;7.690;2022-11-02T03:49:23;7.70;99.90
61412;DHT22;47278;49.732;7.690;2022-11-02T03:51:49;7.50;99.90
61412;DHT22;47278;49.732;7.690;2022-11-02T03:54:18;7.50;99.90
61412;DHT22;47278;49.732;7.690;2022-11-02T03:56:47;7.40;99.90
61412;DHT22;47278;49.732;7.690;2022-11-02T03:59:14;7.20;99.90
61412;DHT22;47278;49.732;7.690;2022-11-02T04:01:43;7.20;99.90
61412;DHT22;47278;49.732;7.690;2022-11-02T04:04:09;7.30;99.90
61412;DHT22;47278;49.732;7.690;2022-11-02T04:06:35;7.40;99.90
61412;DHT22;47278;49.732;7.690;2022-11-02T04:09:02;7.50;99.90
61412;DHT22;47278;49.732;7.690;2022-11-02T04:11:29;7.60;99.90
61412;DHT22;47278;49.732;7.690;2022-11-02T04:14:13;7.50;99.90
61412;DHT22;47278;49.732;7.690;2022-11-02T04:16:57;7.40;99.90
61412;DHT22;47278;49.732;7.690;2022-11-02T04:19:42;7.30;99.90
61412;DHT22;47278;49.732;7.690;2022-11-02T04:22:07;7.40;99.90
61412;DHT22;47278;49.732;7.690;2022-11-02T04:24:51;7.40;99.90
61412;DHT22;47278;49.732;7.690;2022-11-02T04:27:35;7.30;99.90
61412;DHT22;47278;49.732;7.690;2022-11-02T04:30:01;7.50;99.90
61412;DHT22;47278;49.732;7.690;2022-11-02T04:32:27;7.60;99.90
61412;DHT22;47278;49.732;7.690;2022-11-02T04:35:11;7.70;99.90
61412;DHT22;47278;49.732;7.690;2022-11-02T04:37:37;7.70;99.90
61412;DHT22;47278;49.732;7.690;2022-11-02T04:40:21;7.70;99.90
61412;DHT22;47278;49.732;7.690;2022-11-02T04:42:47;7.80;99.90
61412;DHT22;47278;49.732;7.690;2022-11-02T04:45:12;7.90;99.90
61412;DHT22;47278;49.732;7.690;2022-11-02T04:47:38;8.20;99.90
61412;DHT22;47278;49.732;7.690;2022-11-02T04:50:04;8.10;99.90
61412;DHT22;47278;49.732;7.690;2022-11-02T04:52:29;8.00;99.90
61412;DHT22;47278;49.732;7.690;2022-11-02T04:54:55;8.10;99.90
61412;DHT22;47278;49.732;7.690;2022-11-02T04:57:20;8.20;99.90
61412;DHT22;47278;49.732;7.690;2022-11-02T04:59:46;8.20;99.90
61412;DHT22;47278;49.732;7.690;2022-11-02T05:02:11;8.20;99.90
61412;DHT22;47278;49.732;7.690;2022-11-02T05:04:37;8.10;99.90
61412;DHT22;47278;49.732;7.690;2022-11-02T05:07:02;8.10;99.90
61412;DHT22;47278;49.732;7.690;2022-11-02T05:09:30;8.00;99.90
61412;DHT22;47278;49.732;7.690;2022-11-02T05:11:56;7.90;99.90
61412;DHT22;47278;49.732;7.690;2022-11-02T05:14:22;7.90;99.90
61412;DHT22;47278;49.732;7.690;2022-11-02T05:16:47;8.60;99.90
61412;DHT22;47278;49.732;7.690;2022-11-02T05:19:13;7.80;99.90
61412;DHT22;47278;49.732;7.690;2022-11-02T05:21:38;7.80;99.90
61412;DHT22;47278;49.732;7.690;2022-11-02T05:24:04;8.00;99.90
61412;DHT22;47278;49.732;7.690;2022-11-02T05:26:30;8.00;99.90
61412;DHT22;47278;49.732;7.690;2022-11-02T05:28:55;8.00;99.90
61412;DHT22;47278;49.732;7.690;2022-11-02T05:31:21;8.00;99.90
61412;DHT22;47278;49.732;7.690;2022-11-02T05:33:46;7.90;99.90
61412;DHT22;47278;49.732;7.690;2022-11-02T05:36:12;7.90;99.90
61412;DHT22;47278;49.732;7.690;2022-11-02T05:38:37;8.00;99.90
61412;DHT22;47278;49.732;7.690;2022-11-02T05:41:03;8.00;99.90
61412;DHT22;47278;49.732;7.690;2022-11-02T05:43:28;8.10;99.90
61412;DHT22;47278;49.732;7.690;2022-11-02T05:45:55;8.10;99.90
61412;DHT22;47278;49.732;7.690;2022-11-02T05:48:21;8.10;99.90
61412;DHT22;47278;49.732;7.690;2022-11-02T05:50:46;8.10;99.90
61412;DHT22;47278;49.732;7.690;2022-11-02T05:53:12;8.10;99.90
61412;DHT22;47278;49.732;7.690;2022-11-02T05:55:38;8.10;99.90
61412;DHT22;47278;49.732;7.690;2022-11-02T05:58:03;8.10;99.90
61412;DHT22;47278;49.732;7.690;2022-11-02T06:00:36;8.20;99.90
61412;DHT22;47278;49.732;7.690;2022-11-02T06:03:01;8.10;99.90
61412;DHT22;47278;49.732;7.690;2022-11-02T06:05:27;8.20;99.90
61412;DHT22;47278;49.732;7.690;2022-11-02T06:07:56;8.20;99.90
61412;DHT22;47278;49.732;7.690;2022-11-02T06:10:21;8.20;99.90
61412;DHT22;47278;49.732;7.690;2022-11-02T06:12:52;8.10;99.90
61412;DHT22;47278;49.732;7.690;2022-11-02T06:15:18;8.10;99.90
61412;DHT22;47278;49.732;7.690;2022-11-02T06:17:43;8.10;99.90
61412;DHT22;47278;49.732;7.690;2022-11-02T06:20:09;8.00;99.90
61412;DHT22;47278;49.732;7.690;2022-11-02T06:22:38;8.00;99.90
61412;DHT22;47278;49.732;7.690;2022-11-02T06:25:04;8.00;99.90
61412;DHT22;47278;49.732;7.690;2022-11-02T06:27:30;7.90;99.90
61412;DHT22;47278;49.732;7.690;2022-11-02T06:29:55;7.80;99.90
61412;DHT22;47278;49.732;7.690;2022-11-02T06:32:21;7.80;99.90
61412;DHT22;47278;49.732;7.690;2022-11-02T06:34:47;7.80;99.90
61412;DHT22;47278;49.732;7.690;2022-11-02T06:37:12;7.90;99.90
61412;DHT22;47278;49.732;7.690;2022-11-02T06:39:38;7.80;99.90
61412;DHT22;47278;49.732;7.690;2022-11-02T06:42:03;7.80;99.90
61412;DHT22;47278;49.732;7.690;2022-11-02T06:44:29;7.80;99.90
61412;DHT22;47278;49.732;7.690;2022-11-02T06:46:55;7.80;99.90
61412;DHT22;47278;49.732;7.690;2022-11-02T06:49:20;7.90;99.90
61412;DHT22;47278;49.732;7.690;2022-11-02T06:51:46;8.00;99.90
61412;DHT22;47278;49.732;7.690;2022-11-02T06:54:11;8.00;99.90
61412;DHT22;47278;49.732;7.690;2022-11-02T06:56:37;8.10;99.90
61412;DHT22;47278;49.732;7.690;2022-11-02T06:59:03;8.20;99.90
61412;DHT22;47278;49.732;7.690;2022-11-02T07:01:29;8.20;99.90
61412;DHT22;47278;49.732;7.690;2022-11-02T07:03:54;8.10;99.90
61412;DHT22;47278;49.732;7.690;2022-11-02T07:06:20;8.10;99.90
61412;DHT22;47278;49.732;7.690;2022-11-02T07:08:45;8.10;99.90
61412;DHT22;47278;49.732;7.690;2022-11-02T07:11:12;8.10;99.90
61412;DHT22;47278;49.732;7.690;2022-11-02T07:13:37;8.10;99.90
61412;DHT22;47278;49.732;7.690;2022-11-02T07:16:03;8.20;99.90
61412;DHT22;47278;49.732;7.690;2022-11-02T07:18:28;8.20;99.90
61412;DHT22;47278;49.732;7.690;2022-11-02T07:20:54;8.20;99.90
61412;DHT22;47278;49.732;7.690;2022-11-02T07:23:22;8.20;99.90
61412;DHT22;47278;49.732;7.690;2022-11-02T07:25:48;8.30;99.90
61412;DHT22;47278;49.732;7.690;2022-11-02T07:28:13;8.30;99.90
61412;DHT22;47278;49.732;7.690;2022-11-02T07:30:39;8.40;99.90
61412;DHT22;47278;49.732;7.690;2022-11-02T07:33:05;8.50;99.90
61412;DHT22;47278;49.732;7.690;2022-11-02T07:35:30;8.50;99.90
61412;DHT22;47278;49.732;7.690;2022-11-02T07:37:59;8.30;99.90
61412;DHT22;47278;49.732;7.690;2022-11-02T07:40:25;8.40;99.90
61412;DHT22;47278;49.732;7.690;2022-11-02T07:42:50;8.50;99.90
61412;DHT22;47278;49.732;7.690;2022-11-02T07:45:18;8.40;99.90
61412;DHT22;47278;49.732;7.690;2022-11-02T07:47:44;8.50;99.90
61412;DHT22;47278;49.732;7.690;2022-11-02T07:50:10;8.50;99.90
61412;DHT22;47278;49.732;7.690;2022-11-02T07:52:46;8.60;99.90
61412;DHT22;47278;49.732;7.690;2022-11-02T07:55:12;8.60;99.90
61412;DHT22;47278;49.732;7.690;2022-11-02T07:57:38;8.60;99.90
61412;DHT22;47278;49.732;7.690;2022-11-02T08:00:04;8.80;99.90
61412;DHT22;47278;49.732;7.690;2022-11-02T08:02:29;8.80;99.90
61412;DHT22;47278;49.732;7.690;2022-11-02T08:04:55;8.90;99.90
61412;DHT22;47278;49.732;7.690;2022-11-02T08:07:21;9.20;99.90
61412;DHT22;47278;49.732;7.690;2022-11-02T08:09:46;9.50;99.90
61412;DHT22;47278;49.732;7.690;2022-11-02T08:12:12;9.90;99.90
61412;DHT22;47278;49.732;7.690;2022-11-02T08:14:37;10.40;99.90
61412;DHT22;47278;49.732;7.690;2022-11-02T08:17:03;10.60;99.90
61412;DHT22;47278;49.732;7.690;2022-11-02T08:19:28;10.70;99.90
61412;DHT22;47278;49.732;7.690;2022-11-02T08:21:54;10.90;99.90
61412;DHT22;47278;49.732;7.690;2022-11-02T08:24:20;11.10;99.90
61412;DHT22;47278;49.732;7.690;2022-11-02T08:26:46;11.50;99.90
61412;DHT22;47278;49.732;7.690;2022-11-02T08:29:11;11.80;99.90
61412;DHT22;47278;49.732;7.690;2022-11-02T08:31:37;9.90;99.90
61412;DHT22;47278;49.732;7.690;2022-11-02T08:34:02;11.90;99.90
61412;DHT22;47278;49.732;7.690;2022-11-02T08:36:28;12.00;99.90
61412;DHT22;47278;49.732;7.690;2022-11-02T08:38:54;12.20;99.90
61412;DHT22;47278;49.732;7.690;2022-11-02T08:41:19;12.30;99.90
61412;DHT22;47278;49.732;7.690;2022-11-02T08:43:45;12.50;99.90
61412;DHT22;47278;49.732;7.690;2022-11-02T08:46:10;12.50;99.90
61412;DHT22;47278;49.732;7.690;2022-11-02T08:48:36;12.80;99.90
61412;DHT22;47278;49.732;7.690;2022-11-02T08:51:01;13.00;99.90
61412;DHT22;47278;49.732;7.690;2022-11-02T08:53:27;13.20;99.90
61412;DHT22;47278;49.732;7.690;2022-11-02T08:55:55;13.40;99.90
61412;DHT22;47278;49.732;7.690;2022-11-02T08:58:21;13.30;99.90
61412;DHT22;47278;49.732;7.690;2022-11-02T09:00:46;13.20;99.90
61412;DHT22;47278;49.732;7.690;2022-11-02T09:03:13;13.00;99.90
61412;DHT22;47278;49.732;7.690;2022-11-02T09:05:40;13.00;99.90
61412;DHT22;47278;49.732;7.690;2022-11-02T09:08:08;14.90;99.90
61412;DHT22;47278;49.732;7.690;2022-11-02T09:10:35;12.70;99.90
61412;DHT22;47278;49.732;7.690;2022-11-02T09:13:02;12.60;99.90
61412;DHT22;47278;49.732;7.690;2022-11-02T09:15:29;12.60;99.90
61412;DHT22;47278;49.732;7.690;2022-11-02T09:17:55;12.60;99.90
61412;DHT22;47278;49.732;7.690;2022-11-02T09:20:20;12.70;99.90
61412;DHT22;47278;49.732;7.690;2022-11-02T09:22:46;12.60;99.90
61412;DHT22;47278;49.732;7.690;2022-11-02T09:25:12;12.60;99.90
61412;DHT22;47278;49.732;7.690;2022-11-02T09:27:38;12.80;99.90
61412;DHT22;47278;49.732;7.690;2022-11-02T09:30:04;12.90;99.90
61412;DHT22;47278;49.732;7.690;2022-11-02T09:32:30;13.10;99.90
61412;DHT22;47278;49.732;7.690;2022-11-02T09:34:58;13.40;99.90
61412;DHT22;47278;49.732;7.690;2022-11-02T09:37:24;13.40;99.90
61412;DHT22;47278;49.732;7.690;2022-11-02T09:39:50;13.30;99.90
61412;DHT22;47278;49.732;7.690;2022-11-02T09:42:31;13.30;99.90
61412;DHT22;47278;49.732;7.690;2022-11-02T09:45:00;13.20;99.90
61412;DHT22;47278;49.732;7.690;2022-11-02T09:47:26;13.10;99.90
61412;DHT22;47278;49.732;7.690;2022-11-02T09:49:52;13.00;99.90
61412;DHT22;47278;49.732;7.690;2022-11-02T09:52:25;12.90;99.90
61412;DHT22;47278;49.732;7.690;2022-11-02T09:54:52;12.80;99.90
61412;DHT22;47278;49.732;7.690;2022-11-02T09:57:19;12.80;99.90
61412;DHT22;47278;49.732;7.690;2022-11-02T09:59:45;12.90;99.90
61412;DHT22;47278;49.732;7.690;2022-11-02T10:07:34;12.80;99.90
61412;DHT22;47278;49.732;7.690;2022-11-02T10:10:02;15.30;99.90
61412;DHT22;47278;49.732;7.690;2022-11-02T10:13:04;12.90;99.90
61412;DHT22;47278;49.732;7.690;2022-11-02T10:15:30;13.10;99.90
61412;DHT22;47278;49.732;7.690;2022-11-02T10:17:59;13.20;99.90
61412;DHT22;47278;49.732;7.690;2022-11-02T10:20:28;13.20;99.90
61412;DHT22;47278;49.732;7.690;2022-11-02T10:23:00;13.20;99.90
61412;DHT22;47278;49.732;7.690;2022-11-02T10:25:27;13.10;99.90
61412;DHT22;47278;49.732;7.690;2022-11-02T10:27:55;13.00;99.90
61412;DHT22;47278;49.732;7.690;2022-11-02T10:30:25;13.10;99.90
61412;DHT22;47278;49.732;7.690;2022-11-02T10:32:51;13.50;99.90
61412;DHT22;47278;49.732;7.690;2022-11-02T10:35:21;14.80;99.90
61412;DHT22;47278;49.732;7.690;2022-11-02T10:43:08;15.00;99.90
61412;DHT22;47278;49.732;7.690;2022-11-02T10:50:47;15.80;99.90
61412;DHT22;47278;49.732;7.690;2022-11-02T10:53:14;15.70;99.90
61412;DHT22;47278;49.732;7.690;2022-11-02T10:55:53;15.80;99.90
61412;DHT22;47278;49.732;7.690;2022-11-02T10:58:21;15.90;99.90
61412;DHT22;47278;49.732;7.690;2022-11-02T11:00:47;15.80;99.90
61412;DHT22;47278;49.732;7.690;2022-11-02T11:03:14;15.90;99.90
61412;DHT22;47278;49.732;7.690;2022-11-02T11:05:53;15.70;99.90
61412;DHT22;47278;49.732;7.690;2022-11-02T11:10:52;15.80;99.90
61412;DHT22;47278;49.732;7.690;2022-11-02T11:13:20;15.90;99.90
61412;DHT22;47278;49.732;7.690;2022-11-02T11:15:48;15.90;99.90
61412;DHT22;47278;49.732;7.690;2022-11-02T11:18:16;16.20;99.90
61412;DHT22;47278;49.732;7.690;2022-11-02T11:20:42;16.00;99.90
61412;DHT22;47278;49.732;7.690;2022-11-02T11:23:15;15.90;99.90
61412;DHT22;47278;49.732;7.690;2022-11-02T11:25:42;15.90;99.90
61412;DHT22;47278;49.732;7.690;2022-11-02T11:28:30;16.00;99.90
61412;DHT22;47278;49.732;7.690;2022-11-02T11:31:01;16.20;99.90
61412;DHT22;47278;49.732;7.690;2022-11-02T11:33:27;16.10;99.90
61412;DHT22;47278;49.732;7.690;2022-11-02T11:35:54;15.90;99.90
61412;DHT22;47278;49.732;7.690;2022-11-02T11:38:20;15.90;99.90
61412;DHT22;47278;49.732;7.690;2022-11-02T11:40:47;16.30;99.90
61412;DHT22;47278;49.732;7.690;2022-11-02T11:43:17;15.90;99.90
61412;DHT22;47278;49.732;7.690;2022-11-02T11:45:53;16.50;99.90
61412;DHT22;47278;49.732;7.690;2022-11-02T11:50:54;16.80;99.90
61412;DHT22;47278;49.732;7.690;2022-11-02T11:53:26;16.80;99.90
61412;DHT22;47278;49.732;7.690;2022-11-02T11:55:52;16.70;99.90
61412;DHT22;47278;49.732;7.690;2022-11-02T11:58:21;16.70;99.90
61412;DHT22;47278;49.732;7.690;2022-11-02T12:01:33;16.30;99.90
61412;DHT22;47278;49.732;7.690;2022-11-02T12:03:50;16.20;99.90
61412;DHT22;47278;49.732;7.690;2022-11-02T12:11:20;16.60;99.90
61412;DHT22;47278;49.732;7.690;2022-11-02T12:13:56;16.50;99.90
61412;DHT22;47278;49.732;7.690;2022-11-02T12:24:17;16.70;99.90
61412;DHT22;47278;49.732;7.690;2022-11-02T12:26:51;16.70;99.90
61412;DHT22;47278;49.732;7.690;2022-11-02T12:29:33;16.60;99.90
61412;DHT22;47278;49.732;7.690;2022-11-02T12:32:19;17.10;99.90
61412;DHT22;47278;49.732;7.690;2022-11-02T12:35:02;17.40;99.90
61412;DHT22;47278;49.732;7.690;2022-11-02T12:40:29;18.00;99.90
61412;DHT22;47278;49.732;7.690;2022-11-02T12:48:07;16.10;99.90
61412;DHT22;47278;49.732;7.690;2022-11-02T12:53:06;16.10;99.90
61412;DHT22;47278;49.732;7.690;2022-11-02T12:55:37;16.20;99.90
61412;DHT22;47278;49.732;7.690;2022-11-02T12:58:05;16.40;99.90
61412;DHT22;47278;49.732;7.690;2022-11-02T13:00:32;16.00;99.90
61412;DHT22;47278;49.732;7.690;2022-11-02T13:05:31;16.40;99.90
61412;DHT22;47278;49.732;7.690;2022-11-02T13:10:25;16.40;99.90
61412;DHT22;47278;49.732;7.690;2022-11-02T13:12:53;16.60;99.90
61412;DHT22;47278;49.732;7.690;2022-11-02T13:15:21;16.50;99.90
61412;DHT22;47278;49.732;7.690;2022-11-02T13:17:48;16.80;99.90
61412;DHT22;47278;49.732;7.690;2022-11-02T13:22:59;17.10;99.90
61412;DHT22;47278;49.732;7.690;2022-11-02T13:27:56;17.70;99.90
61412;DHT22;47278;49.732;7.690;2022-11-02T13:30:22;16.70;99.90
61412;DHT22;47278;49.732;7.690;2022-11-02T13:32:57;16.60;99.90
61412;DHT22;47278;49.732;7.690;2022-11-02T13:35:33;16.90;99.90
61412;DHT22;47278;49.732;7.690;2022-11-02T13:38:02;16.80;99.90
61412;DHT22;47278;49.732;7.690;2022-11-02T13:40:31;16.60;99.90
61412;DHT22;47278;49.732;7.690;2022-11-02T13:45:32;16.30;99.90
61412;DHT22;47278;49.732;7.690;2022-11-02T13:48:05;16.50;99.90
61412;DHT22;47278;49.732;7.690;2022-11-02T13:50:37;15.30;99.90
61412;DHT22;47278;49.732;7.690;2022-11-02T13:53:05;16.30;99.90
61412;DHT22;47278;49.732;7.690;2022-11-02T13:58:19;16.80;99.90
61412;DHT22;47278;49.732;7.690;2022-11-02T14:00:46;17.00;99.90
61412;DHT22;47278;49.732;7.690;2022-11-02T14:03:15;16.90;99.90
61412;DHT22;47278;49.732;7.690;2022-11-02T14:05:43;17.00;99.90
61412;DHT22;47278;49.732;7.690;2022-11-02T14:08:15;17.20;99.90
61412;DHT22;47278;49.732;7.690;2022-11-02T14:10:42;18.60;99.90
61412;DHT22;47278;49.732;7.690;2022-11-02T14:13:14;20.50;99.90
61412;DHT22;47278;49.732;7.690;2022-11-02T14:15:42;21.40;99.90
61412;DHT22;47278;49.732;7.690;2022-11-02T14:20:34;21.20;99.90
61412;DHT22;47278;49.732;7.690;2022-11-02T14:25:49;20.60;99.90
61412;DHT22;47278;49.732;7.690;2022-11-02T14:36:04;20.20;99.90
61412;DHT22;47278;49.732;7.690;2022-11-02T14:38:35;20.30;99.90
61412;DHT22;47278;49.732;7.690;2022-11-02T14:43:44;19.80;99.90
61412;DHT22;47278;49.732;7.690;2022-11-02T14:48:49;19.40;99.90
61412;DHT22;47278;49.732;7.690;2022-11-02T14:51:26;18.90;99.90
61412;DHT22;47278;49.732;7.690;2022-11-02T14:53:55;18.00;99.90
61412;DHT22;47278;49.732;7.690;2022-11-02T14:56:22;16.90;99.90
61412;DHT22;47278;49.732;7.690;2022-11-02T14:58:53;16.10;99.90
61412;DHT22;47278;49.732;7.690;2022-11-02T15:01:19;15.90;99.90
61412;DHT22;47278;49.732;7.690;2022-11-02T15:03:45;15.60;99.90
61412;DHT22;47278;49.732;7.690;2022-11-02T15:06:17;15.10;99.90
61412;DHT22;47278;49.732;7.690;2022-11-02T15:08:54;14.80;99.90
61412;DHT22;47278;49.732;7.690;2022-11-02T15:14:29;14.70;99.90
61412;DHT22;47278;49.732;7.690;2022-11-02T15:16:49;14.50;99.90
61412;DHT22;47278;49.732;7.690;2022-11-02T15:25:05;13.90;99.90
61412;DHT22;47278;49.732;7.690;2022-11-02T15:27:35;13.70;99.90
61412;DHT22;47278;49.732;7.690;2022-11-02T15:30:01;13.50;99.90
61412;DHT22;47278;49.732;7.690;2022-11-02T15:32:29;13.30;99.90
61412;DHT22;47278;49.732;7.690;2022-11-02T15:34:59;13.10;99.90
61412;DHT22;47278;49.732;7.690;2022-11-02T15:37:29;12.90;99.90
61412;DHT22;47278;49.732;7.690;2022-11-02T15:39:56;12.80;99.90
61412;DHT22;47278;49.732;7.690;2022-11-02T15:42:42;12.60;99.90
61412;DHT22;47278;49.732;7.690;2022-11-02T15:55:51;11.70;99.90
61412;DHT22;47278;49.732;7.690;2022-11-02T15:58:20;11.50;99.90
61412;DHT22;47278;49.732;7.690;2022-11-02T16:03:33;11.30;99.90
61412;DHT22;47278;49.732;7.690;2022-11-02T16:05:59;11.00;99.90
61412;DHT22;47278;49.732;7.690;2022-11-02T16:08:33;10.80;99.90
61412;DHT22;47278;49.732;7.690;2022-11-02T16:11:04;10.70;99.90
61412;DHT22;47278;49.732;7.690;2022-11-02T16:13:32;10.60;99.90
61412;DHT22;47278;49.732;7.690;2022-11-02T16:16:00;13.20;99.90
61412;DHT22;47278;49.732;7.690;2022-11-02T16:18:28;10.40;99.90
61412;DHT22;47278;49.732;7.690;2022-11-02T16:20:57;10.20;99.90
61412;DHT22;47278;49.732;7.690;2022-11-02T16:23:27;10.10;99.90
61412;DHT22;47278;49.732;7.690;2022-11-02T16:25:53;10.10;99.90
61412;DHT22;47278;49.732;7.690;2022-11-02T16:28:24;9.90;99.90
61412;DHT22;47278;49.732;7.690;2022-11-02T16:33:45;9.70;99.90
61412;DHT22;47278;49.732;7.690;2022-11-02T16:36:13;9.60;99.90
61412;DHT22;47278;49.732;7.690;2022-11-02T16:38:44;9.50;99.90
61412;DHT22;47278;49.732;7.690;2022-11-02T16:41:10;9.40;99.90
61412;DHT22;47278;49.732;7.690;2022-11-02T16:43:40;9.40;99.90
61412;DHT22;47278;49.732;7.690;2022-11-02T16:46:06;9.40;99.90
61412;DHT22;47278;49.732;7.690;2022-11-02T16:48:32;11.60;99.90
61412;DHT22;47278;49.732;7.690;2022-11-02T16:50:58;9.20;99.90
61412;DHT22;47278;49.732;7.690;2022-11-02T16:53:28;9.00;99.90
61412;DHT22;47278;49.732;7.690;2022-11-02T16:55:54;8.90;99.90
61412;DHT22;47278;49.732;7.690;2022-11-02T16:58:26;8.90;99.90
61412;DHT22;47278;49.732;7.690;2022-11-02T17:00:56;8.90;99.90
61412;DHT22;47278;49.732;7.690;2022-11-02T17:03:24;8.80;99.90
61412;DHT22;47278;49.732;7.690;2022-11-02T17:05:50;8.70;99.90
61412;DHT22;47278;49.732;7.690;2022-11-02T17:08:32;8.60;99.90
61412;DHT22;47278;49.732;7.690;2022-11-02T17:10:59;8.60;99.90
61412;DHT22;47278;49.732;7.690;2022-11-02T17:13:25;8.50;99.90
61412;DHT22;47278;49.732;7.690;2022-11-02T17:15:53;8.60;99.90
61412;DHT22;47278;49.732;7.690;2022-11-02T17:20:46;8.30;99.90
61412;DHT22;47278;49.732;7.690;2022-11-02T17:23:29;8.10;99.90
61412;DHT22;47278;49.732;7.690;2022-11-02T17:28:58;8.00;99.90
61412;DHT22;47278;49.732;7.690;2022-11-02T17:31:30;8.10;99.90
61412;DHT22;47278;49.732;7.690;2022-11-02T17:33:57;8.10;99.90
61412;DHT22;47278;49.732;7.690;2022-11-02T17:36:24;8.00;99.90
61412;DHT22;47278;49.732;7.690;2022-11-02T17:38:51;7.80;99.90
61412;DHT22;47278;49.732;7.690;2022-11-02T17:41:18;7.70;99.90
61412;DHT22;47278;49.732;7.690;2022-11-02T17:44:02;7.60;99.90
61412;DHT22;47278;49.732;7.690;2022-11-02T17:46:28;7.70;99.90
61412;DHT22;47278;49.732;7.690;2022-11-02T17:48:54;7.60;99.90
61412;DHT22;47278;49.732;7.690;2022-11-02T17:51:22;7.60;99.90
61412;DHT22;47278;49.732;7.690;2022-11-02T17:53:48;7.40;99.90
61412;DHT22;47278;49.732;7.690;2022-11-02T17:56:14;7.50;99.90
61412;DHT22;47278;49.732;7.690;2022-11-02T17:58:39;7.40;99.90
61412;DHT22;47278;49.732;7.690;2022-11-02T18:01:05;7.30;99.90
61412;DHT22;47278;49.732;7.690;2022-11-02T18:03:31;7.20;99.90